Terminal Aerodrome Forecast
Issued by NWS

Home | Current Version | Previous Version | Text Only | Print | Product List | Glossary Off
Versions: 1 2 3 4 5 6 7 8 9 10 11 12 13 14 15

000
FTUS43 KICT 251601 AAA
TAFSLN
TAF AMD
KSLN 251601Z 2516/2612 33018G23KT P6SM BKN030 BKN250
     FM252300 34012G19KT P6SM VCSH BKN030
     FM260100 36015G23KT P6SM VCSH OVC020
     FM260600 34016KT P6SM OVC010=

USA.gov is the U.S. government's official web portal to all federal, state and local government web resources and services.